sensor_id;sensor_type;location;lat;lon;timestamp;P1;P2;P0
44871;PMS7003;30602;51.060;17.226;2023-07-09T00:00:06;87;80;74
44871;PMS7003;30602;51.060;17.226;2023-07-09T00:04:01;87;78;70
44871;PMS7003;30602;51.060;17.226;2023-07-09T00:07:34;82;71;64
44871;PMS7003;30602;51.060;17.226;2023-07-09T00:12:01;83;73;66
44871;PMS7003;30602;51.060;17.226;2023-07-09T00:16:38;72;62;51
44871;PMS7003;30602;51.060;17.226;2023-07-09T00:20:29;87;76;70
44871;PMS7003;30602;51.060;17.226;2023-07-09T00:24:15;92;87;81
44871;PMS7003;30602;51.060;17.226;2023-07-09T00:27:52;90;84;77
44871;PMS7003;30602;51.060;17.226;2023-07-09T00:32:18;76;64;56
44871;PMS7003;30602;51.060;17.226;2023-07-09T00:35:47;88;82;74
44871;PMS7003;30602;51.060;17.226;2023-07-09T00:39:35;96;93;87
44871;PMS7003;30602;51.060;17.226;2023-07-09T00:44:18;89;79;72
44871;PMS7003;30602;51.060;17.226;2023-07-09T00:49:06;81;70;63
44871;PMS7003;30602;51.060;17.226;2023-07-09T00:53:04;89;81;74
44871;PMS7003;30602;51.060;17.226;2023-07-09T00:57:21;75;64;56
44871;PMS7003;30602;51.060;17.226;2023-07-09T01:01:03;90;82;76
44871;PMS7003;30602;51.060;17.226;2023-07-09T01:04:36;98;91;84
44871;PMS7003;30602;51.060;17.226;2023-07-09T01:08:29;106;103;97
44871;PMS7003;30602;51.060;17.226;2023-07-09T01:13:02;99;95;87
44871;PMS7003;30602;51.060;17.226;2023-07-09T01:17:11;110;108;102
44871;PMS7003;30602;51.060;17.226;2023-07-09T01:21:10;109;106;99
44871;PMS7003;30602;51.060;17.226;2023-07-09T01:25:51;83;71;64
44871;PMS7003;30602;51.060;17.226;2023-07-09T01:29:49;90;79;74
44871;PMS7003;30602;51.060;17.226;2023-07-09T01:34:03;88;78;74
44871;PMS7003;30602;51.060;17.226;2023-07-09T01:38:03;100;97;91
44871;PMS7003;30602;51.060;17.226;2023-07-09T01:41:33;98;95;90
44871;PMS7003;30602;51.060;17.226;2023-07-09T01:45:01;100;96;92
44871;PMS7003;30602;51.060;17.226;2023-07-09T01:49:14;96;87;81
44871;PMS7003;30602;51.060;17.226;2023-07-09T01:53:37;100;96;89
44871;PMS7003;30602;51.060;17.226;2023-07-09T01:57:49;141;137;128
44871;PMS7003;30602;51.060;17.226;2023-07-09T02:01:29;116;113;107
44871;PMS7003;30602;51.060;17.226;2023-07-09T02:05:52;93;89;84
44871;PMS7003;30602;51.060;17.226;2023-07-09T02:10:06;103;102;96
44871;PMS7003;30602;51.060;17.226;2023-07-09T02:14:48;102;93;86
44871;PMS7003;30602;51.060;17.226;2023-07-09T02:19:33;101;98;92
44871;PMS7003;30602;51.060;17.226;2023-07-09T02:22:58;119;117;110
44871;PMS7003;30602;51.060;17.226;2023-07-09T02:26:42;108;106;101
44871;PMS7003;30602;51.060;17.226;2023-07-09T02:30:57;121;119;114
44871;PMS7003;30602;51.060;17.226;2023-07-09T02:35:19;140;137;131
44871;PMS7003;30602;51.060;17.226;2023-07-09T02:39:46;152;149;141
44871;PMS7003;30602;51.060;17.226;2023-07-09T02:43:35;141;138;131
44871;PMS7003;30602;51.060;17.226;2023-07-09T02:47:12;126;124;116
44871;PMS7003;30602;51.060;17.226;2023-07-09T02:51:29;136;134;125
44871;PMS7003;30602;51.060;17.226;2023-07-09T02:55:26;139;135;128
44871;PMS7003;30602;51.060;17.226;2023-07-09T02:59:10;177;175;167
44871;PMS7003;30602;51.060;17.226;2023-07-09T03:03:04;174;171;166
44871;PMS7003;30602;51.060;17.226;2023-07-09T03:08:03;121;117;108
44871;PMS7003;30602;51.060;17.226;2023-07-09T03:12:08;187;186;179
44871;PMS7003;30602;51.060;17.226;2023-07-09T03:16:47;132;130;124
44871;PMS7003;30602;51.060;17.226;2023-07-09T03:20:31;141;139;133
44871;PMS7003;30602;51.060;17.226;2023-07-09T03:24:34;141;139;130
44871;PMS7003;30602;51.060;17.226;2023-07-09T03:28:55;136;132;127
44871;PMS7003;30602;51.060;17.226;2023-07-09T03:32:51;106;102;95
44871;PMS7003;30602;51.060;17.226;2023-07-09T03:36:31;123;121;115
44871;PMS7003;30602;51.060;17.226;2023-07-09T03:40:21;107;102;95
44871;PMS7003;30602;51.060;17.226;2023-07-09T03:44:31;111;108;102
44871;PMS7003;30602;51.060;17.226;2023-07-09T03:48:51;83;73;65
44871;PMS7003;30602;51.060;17.226;2023-07-09T03:52:27;101;96;90
44871;PMS7003;30602;51.060;17.226;2023-07-09T03:56:11;101;95;89
44871;PMS7003;30602;51.060;17.226;2023-07-09T04:00:05;91;84;77
44871;PMS7003;30602;51.060;17.226;2023-07-09T04:04:23;89;82;76
44871;PMS7003;30602;51.060;17.226;2023-07-09T04:08:04;93;89;81
44871;PMS7003;30602;51.060;17.226;2023-07-09T04:11:49;83;73;66
44871;PMS7003;30602;51.060;17.226;2023-07-09T04:15:33;85;75;70
44871;PMS7003;30602;51.060;17.226;2023-07-09T04:18:57;83;73;64
44871;PMS7003;30602;51.060;17.226;2023-07-09T04:23:11;81;70;60
44871;PMS7003;30602;51.060;17.226;2023-07-09T04:27:05;76;65;57
44871;PMS7003;30602;51.060;17.226;2023-07-09T04:30:53;71;60;50
44871;PMS7003;30602;51.060;17.226;2023-07-09T04:35:01;69;59;48
44871;PMS7003;30602;51.060;17.226;2023-07-09T04:38:40;66;58;46
44871;PMS7003;30602;51.060;17.226;2023-07-09T04:42:33;74;62;52
44871;PMS7003;30602;51.060;17.226;2023-07-09T04:46:16;72;61;52
44871;PMS7003;30602;51.060;17.226;2023-07-09T04:49:53;67;58;49
44871;PMS7003;30602;51.060;17.226;2023-07-09T04:54:14;63;55;44
44871;PMS7003;30602;51.060;17.226;2023-07-09T04:57:55;80;73;65
44871;PMS7003;30602;51.060;17.226;2023-07-09T05:02:14;67;59;50
44871;PMS7003;30602;51.060;17.226;2023-07-09T05:06:19;69;61;54
44871;PMS7003;30602;51.060;17.226;2023-07-09T05:10:16;79;70;60
44871;PMS7003;30602;51.060;17.226;2023-07-09T05:14:19;102;91;82
44871;PMS7003;30602;51.060;17.226;2023-07-09T05:18:11;97;92;85
44871;PMS7003;30602;51.060;17.226;2023-07-09T05:22:08;91;83;76
44871;PMS7003;30602;51.060;17.226;2023-07-09T05:26:05;56;53;44
44871;PMS7003;30602;51.060;17.226;2023-07-09T05:29:42;82;76;53
44871;PMS7003;30602;51.060;17.226;2023-07-09T05:33:41;82;76;48
44871;PMS7003;30602;51.060;17.226;2023-07-09T05:37:23;54;52;43
44871;PMS7003;30602;51.060;17.226;2023-07-09T05:40:48;107;98;60
44871;PMS7003;30602;51.060;17.226;2023-07-09T05:44:57;60;54;44
44871;PMS7003;30602;51.060;17.226;2023-07-09T05:48:25;62;60;45
44871;PMS7003;30602;51.060;17.226;2023-07-09T05:52:45;56;52;39
44871;PMS7003;30602;51.060;17.226;2023-07-09T05:56:35;56;52;43
44871;PMS7003;30602;51.060;17.226;2023-07-09T06:00:20;49;47;39
44871;PMS7003;30602;51.060;17.226;2023-07-09T06:04:14;68;59;52
44871;PMS7003;30602;51.060;17.226;2023-07-09T06:08:12;52;49;41
44871;PMS7003;30602;51.060;17.226;2023-07-09T06:11:51;60;55;48
44871;PMS7003;30602;51.060;17.226;2023-07-09T06:15:20;48;46;38
44871;PMS7003;30602;51.060;17.226;2023-07-09T06:18:56;64;62;45
44871;PMS7003;30602;51.060;17.226;2023-07-09T06:22:37;104;102;78
44871;PMS7003;30602;51.060;17.226;2023-07-09T06:26:50;78;75;57
44871;PMS7003;30602;51.060;17.226;2023-07-09T06:31:05;57;53;45
44871;PMS7003;30602;51.060;17.226;2023-07-09T06:35:08;59;53;44
44871;PMS7003;30602;51.060;17.226;2023-07-09T06:39:29;57;53;46
44871;PMS7003;30602;51.060;17.226;2023-07-09T06:43:20;52;51;44
44871;PMS7003;30602;51.060;17.226;2023-07-09T06:46:45;56;55;44
44871;PMS7003;30602;51.060;17.226;2023-07-09T06:55:06;60;55;47
44871;PMS7003;30602;51.060;17.226;2023-07-09T06:58:56;56;52;45
44871;PMS7003;30602;51.060;17.226;2023-07-09T07:02:18;48;45;39
44871;PMS7003;30602;51.060;17.226;2023-07-09T07:07:00;57;53;46
44871;PMS7003;30602;51.060;17.226;2023-07-09T07:10:38;52;49;42
44871;PMS7003;30602;51.060;17.226;2023-07-09T07:14:04;50;48;41
44871;PMS7003;30602;51.060;17.226;2023-07-09T07:21:49;60;55;46
44871;PMS7003;30602;51.060;17.226;2023-07-09T07:25:56;72;64;57
44871;PMS7003;30602;51.060;17.226;2023-07-09T07:34:17;54;51;43
44871;PMS7003;30602;51.060;17.226;2023-07-09T07:38:08;54;50;43
44871;PMS7003;30602;51.060;17.226;2023-07-09T07:42:14;68;66;41
44871;PMS7003;30602;51.060;17.226;2023-07-09T07:45:59;66;61;52
44871;PMS7003;30602;51.060;17.226;2023-07-09T07:50:17;55;51;44
44871;PMS7003;30602;51.060;17.226;2023-07-09T07:53:57;81;77;71
44871;PMS7003;30602;51.060;17.226;2023-07-09T07:57:48;85;80;72
44871;PMS7003;30602;51.060;17.226;2023-07-09T08:02:13;62;59;43
44871;PMS7003;30602;51.060;17.226;2023-07-09T08:06:41;51;49;42
44871;PMS7003;30602;51.060;17.226;2023-07-09T08:10:51;104;102;69
44871;PMS7003;30602;51.060;17.226;2023-07-09T08:14:52;61;60;49
44871;PMS7003;30602;51.060;17.226;2023-07-09T08:18:51;72;71;46
44871;PMS7003;30602;51.060;17.226;2023-07-09T08:23:11;61;60;46
44871;PMS7003;30602;51.060;17.226;2023-07-09T08:27:42;42;41;36
44871;PMS7003;30602;51.060;17.226;2023-07-09T08:31:40;47;43;38
44871;PMS7003;30602;51.060;17.226;2023-07-09T08:39:28;41;40;34
44871;PMS7003;30602;51.060;17.226;2023-07-09T08:51:28;38;37;32
44871;PMS7003;30602;51.060;17.226;2023-07-09T08:55:25;43;41;35
44871;PMS7003;30602;51.060;17.226;2023-07-09T08:58:55;35;32;29
44871;PMS7003;30602;51.060;17.226;2023-07-09T09:03:15;33;32;29
44871;PMS7003;30602;51.060;17.226;2023-07-09T09:07:01;35;34;31
44871;PMS7003;30602;51.060;17.226;2023-07-09T09:10:33;38;37;34
44871;PMS7003;30602;51.060;17.226;2023-07-09T09:14:58;33;31;30
44871;PMS7003;30602;51.060;17.226;2023-07-09T09:18:31;32;32;29
44871;PMS7003;30602;51.060;17.226;2023-07-09T09:27:01;34;32;29
44871;PMS7003;30602;51.060;17.226;2023-07-09T09:30:24;31;30;26
44871;PMS7003;30602;51.060;17.226;2023-07-09T09:33:50;32;31;29
44871;PMS7003;30602;51.060;17.226;2023-07-09T09:37:15;33;32;29
44871;PMS7003;30602;51.060;17.226;2023-07-09T09:41:14;34;33;30
44871;PMS7003;30602;51.060;17.226;2023-07-09T09:45:20;36;35;31
44871;PMS7003;30602;51.060;17.226;2023-07-09T09:49:43;35;33;31
44871;PMS7003;30602;51.060;17.226;2023-07-09T09:53:49;35;34;32
44871;PMS7003;30602;51.060;17.226;2023-07-09T09:57:50;35;32;30
44871;PMS7003;30602;51.060;17.226;2023-07-09T10:02:19;30;30;28
44871;PMS7003;30602;51.060;17.226;2023-07-09T10:10:02;36;36;32
44871;PMS7003;30602;51.060;17.226;2023-07-09T10:14:44;35;33;30
44871;PMS7003;30602;51.060;17.226;2023-07-09T10:18:46;32;30;26
44871;PMS7003;30602;51.060;17.226;2023-07-09T10:26:40;34;33;31
44871;PMS7003;30602;51.060;17.226;2023-07-09T10:30:15;37;37;33
44871;PMS7003;30602;51.060;17.226;2023-07-09T10:38:25;35;35;32
44871;PMS7003;30602;51.060;17.226;2023-07-09T10:43:19;36;35;34
44871;PMS7003;30602;51.060;17.226;2023-07-09T10:47:17;48;47;42
44871;PMS7003;30602;51.060;17.226;2023-07-09T10:51:07;54;51;45
44871;PMS7003;30602;51.060;17.226;2023-07-09T10:58:57;29;29;28
44871;PMS7003;30602;51.060;17.226;2023-07-09T11:03:13;44;42;38
44871;PMS7003;30602;51.060;17.226;2023-07-09T11:06:52;46;44;40
44871;PMS7003;30602;51.060;17.226;2023-07-09T11:10:20;34;33;29
44871;PMS7003;30602;51.060;17.226;2023-07-09T11:14:00;35;32;30
44871;PMS7003;30602;51.060;17.226;2023-07-09T11:17:33;33;32;29
44871;PMS7003;30602;51.060;17.226;2023-07-09T11:26:01;46;44;39
44871;PMS7003;30602;51.060;17.226;2023-07-09T11:30:33;29;28;28
44871;PMS7003;30602;51.060;17.226;2023-07-09T11:34:33;32;32;29
44871;PMS7003;30602;51.060;17.226;2023-07-09T11:38:24;44;41;36
44871;PMS7003;30602;51.060;17.226;2023-07-09T11:41:52;31;31;28
44871;PMS7003;30602;51.060;17.226;2023-07-09T11:45:48;30;30;27
44871;PMS7003;30602;51.060;17.226;2023-07-09T11:49:12;33;32;29
44871;PMS7003;30602;51.060;17.226;2023-07-09T11:52:38;32;31;28
44871;PMS7003;30602;51.060;17.226;2023-07-09T11:56:32;35;34;30
44871;PMS7003;30602;51.060;17.226;2023-07-09T12:00:20;40;38;34
44871;PMS7003;30602;51.060;17.226;2023-07-09T12:08:37;56;53;49
44871;PMS7003;30602;51.060;17.226;2023-07-09T12:12:15;49;47;43
44871;PMS7003;30602;51.060;17.226;2023-07-09T12:15:55;53;49;43
44871;PMS7003;30602;51.060;17.226;2023-07-09T12:20:14;39;38;34
44871;PMS7003;30602;51.060;17.226;2023-07-09T12:23:40;37;37;33
44871;PMS7003;30602;51.060;17.226;2023-07-09T12:27:26;40;39;36
44871;PMS7003;30602;51.060;17.226;2023-07-09T12:31:00;36;36;34
44871;PMS7003;30602;51.060;17.226;2023-07-09T12:34:30;51;50;44
44871;PMS7003;30602;51.060;17.226;2023-07-09T12:38:24;35;33;32
44871;PMS7003;30602;51.060;17.226;2023-07-09T12:42:17;33;33;31
44871;PMS7003;30602;51.060;17.226;2023-07-09T12:45:46;50;46;40
44871;PMS7003;30602;51.060;17.226;2023-07-09T12:54:03;47;44;41
44871;PMS7003;30602;51.060;17.226;2023-07-09T12:57:56;51;48;43
44871;PMS7003;30602;51.060;17.226;2023-07-09T13:01:40;60;57;51
44871;PMS7003;30602;51.060;17.226;2023-07-09T13:05:50;51;48;43
44871;PMS7003;30602;51.060;17.226;2023-07-09T13:09:47;61;56;51
44871;PMS7003;30602;51.060;17.226;2023-07-09T13:13:22;54;53;48
44871;PMS7003;30602;51.060;17.226;2023-07-09T13:16:52;50;49;43
44871;PMS7003;30602;51.060;17.226;2023-07-09T13:20:32;51;49;44
44871;PMS7003;30602;51.060;17.226;2023-07-09T13:23:58;40;39;35
44871;PMS7003;30602;51.060;17.226;2023-07-09T13:27:53;43;42;38
44871;PMS7003;30602;51.060;17.226;2023-07-09T13:31:20;37;37;33
44871;PMS7003;30602;51.060;17.226;2023-07-09T13:39:10;34;32;30
44871;PMS7003;30602;51.060;17.226;2023-07-09T13:46:36;32;32;28
44871;PMS7003;30602;51.060;17.226;2023-07-09T13:50:00;38;37;34
44871;PMS7003;30602;51.060;17.226;2023-07-09T13:53:31;41;40;37
44871;PMS7003;30602;51.060;17.226;2023-07-09T13:56:57;49;48;45
44871;PMS7003;30602;51.060;17.226;2023-07-09T14:00:20;54;51;45
44871;PMS7003;30602;51.060;17.226;2023-07-09T14:04:00;52;49;44
44871;PMS7003;30602;51.060;17.226;2023-07-09T14:07:29;37;37;33
44871;PMS7003;30602;51.060;17.226;2023-07-09T14:11:28;52;50;44
44871;PMS7003;30602;51.060;17.226;2023-07-09T14:15:36;48;46;42
44871;PMS7003;30602;51.060;17.226;2023-07-09T14:19:07;58;53;46
44871;PMS7003;30602;51.060;17.226;2023-07-09T14:22:54;50;48;43
44871;PMS7003;30602;51.060;17.226;2023-07-09T14:27:00;38;38;35
44871;PMS7003;30602;51.060;17.226;2023-07-09T14:30:43;45;43;40
44871;PMS7003;30602;51.060;17.226;2023-07-09T14:34:40;36;36;32
44871;PMS7003;30602;51.060;17.226;2023-07-09T14:39:10;45;43;40
44871;PMS7003;30602;51.060;17.226;2023-07-09T14:43:04;35;34;32
44871;PMS7003;30602;51.060;17.226;2023-07-09T14:46:38;51;48;44
44871;PMS7003;30602;51.060;17.226;2023-07-09T14:50:22;67;62;55
44871;PMS7003;30602;51.060;17.226;2023-07-09T14:53:48;51;49;44
44871;PMS7003;30602;51.060;17.226;2023-07-09T14:58:37;31;29;27
44871;PMS7003;30602;51.060;17.226;2023-07-09T15:07:01;60;54;48
44871;PMS7003;30602;51.060;17.226;2023-07-09T15:10:45;36;32;30
44871;PMS7003;30602;51.060;17.226;2023-07-09T15:14:11;34;33;29
44871;PMS7003;30602;51.060;17.226;2023-07-09T15:18:13;35;35;32
44871;PMS7003;30602;51.060;17.226;2023-07-09T15:22:04;31;31;29
44871;PMS7003;30602;51.060;17.226;2023-07-09T15:25:57;56;52;46
44871;PMS7003;30602;51.060;17.226;2023-07-09T15:29:36;48;45;40
44871;PMS7003;30602;51.060;17.226;2023-07-09T15:34:03;36;36;34
44871;PMS7003;30602;51.060;17.226;2023-07-09T15:37:29;46;44;40
44871;PMS7003;30602;51.060;17.226;2023-07-09T15:41:44;35;33;30
44871;PMS7003;30602;51.060;17.226;2023-07-09T15:46:20;41;40;38
44871;PMS7003;30602;51.060;17.226;2023-07-09T15:49:46;35;34;32
44871;PMS7003;30602;51.060;17.226;2023-07-09T15:53:11;48;45;40
44871;PMS7003;30602;51.060;17.226;2023-07-09T15:56:41;34;33;30
44871;PMS7003;30602;51.060;17.226;2023-07-09T16:01:03;58;53;47
44871;PMS7003;30602;51.060;17.226;2023-07-09T16:05:41;54;50;45
44871;PMS7003;30602;51.060;17.226;2023-07-09T16:09:41;35;34;33
44871;PMS7003;30602;51.060;17.226;2023-07-09T16:13:20;43;41;36
44871;PMS7003;30602;51.060;17.226;2023-07-09T16:16:43;35;33;30
44871;PMS7003;30602;51.060;17.226;2023-07-09T16:21:47;26;22;18
44871;PMS7003;30602;51.060;17.226;2023-07-09T16:29:50;59;53;47
44871;PMS7003;30602;51.060;17.226;2023-07-09T16:33:44;28;26;25
44871;PMS7003;30602;51.060;17.226;2023-07-09T16:37:39;23;22;20
44871;PMS7003;30602;51.060;17.226;2023-07-09T16:41:37;26;25;24
44871;PMS7003;30602;51.060;17.226;2023-07-09T16:45:05;31;30;27
44871;PMS7003;30602;51.060;17.226;2023-07-09T16:49:38;34;32;27
44871;PMS7003;30602;51.060;17.226;2023-07-09T16:53:30;27;26;24
44871;PMS7003;30602;51.060;17.226;2023-07-09T16:56:59;38;38;34
44871;PMS7003;30602;51.060;17.226;2023-07-09T17:00:40;33;32;29
44871;PMS7003;30602;51.060;17.226;2023-07-09T17:04:37;27;26;24
44871;PMS7003;30602;51.060;17.226;2023-07-09T17:08:34;44;43;38
44871;PMS7003;30602;51.060;17.226;2023-07-09T17:12:04;48;45;41
44871;PMS7003;30602;51.060;17.226;2023-07-09T17:16:12;31;30;27
44871;PMS7003;30602;51.060;17.226;2023-07-09T17:20:34;26;25;24
44871;PMS7003;30602;51.060;17.226;2023-07-09T17:25:04;25;25;23
44871;PMS7003;30602;51.060;17.226;2023-07-09T17:29:08;27;26;24
44871;PMS7003;30602;51.060;17.226;2023-07-09T17:32:56;25;23;20
44871;PMS7003;30602;51.060;17.226;2023-07-09T17:36:20;26;25;23
44871;PMS7003;30602;51.060;17.226;2023-07-09T17:44:16;24;21;21
44871;PMS7003;30602;51.060;17.226;2023-07-09T17:48:29;24;23;19
44871;PMS7003;30602;51.060;17.226;2023-07-09T17:51:56;22;20;17
44871;PMS7003;30602;51.060;17.226;2023-07-09T17:55:20;21;20;17
44871;PMS7003;30602;51.060;17.226;2023-07-09T17:58:45;19;17;14
44871;PMS7003;30602;51.060;17.226;2023-07-09T18:02:12;23;22;20
44871;PMS7003;30602;51.060;17.226;2023-07-09T18:05:37;23;20;17
44871;PMS7003;30602;51.060;17.226;2023-07-09T18:09:25;25;23;19
44871;PMS7003;30602;51.060;17.226;2023-07-09T18:13:25;22;19;16
44871;PMS7003;30602;51.060;17.226;2023-07-09T18:21:34;40;40;38
44871;PMS7003;30602;51.060;17.226;2023-07-09T18:25:20;56;53;42
44871;PMS7003;30602;51.060;17.226;2023-07-09T18:29:32;37;33;28
44871;PMS7003;30602;51.060;17.226;2023-07-09T18:33:26;25;23;18
44871;PMS7003;30602;51.060;17.226;2023-07-09T18:37:39;27;26;23
44871;PMS7003;30602;51.060;17.226;2023-07-09T18:41:14;26;24;20
44871;PMS7003;30602;51.060;17.226;2023-07-09T18:44:40;26;23;19
44871;PMS7003;30602;51.060;17.226;2023-07-09T18:48:36;24;23;20
44871;PMS7003;30602;51.060;17.226;2023-07-09T18:52:24;26;24;21
44871;PMS7003;30602;51.060;17.226;2023-07-09T18:56:45;22;19;17
44871;PMS7003;30602;51.060;17.226;2023-07-09T19:00:46;30;26;23
44871;PMS7003;30602;51.060;17.226;2023-07-09T19:04:16;24;22;19
44871;PMS7003;30602;51.060;17.226;2023-07-09T19:07:58;30;28;21
44871;PMS7003;30602;51.060;17.226;2023-07-09T19:12:23;27;23;20
44871;PMS7003;30602;51.060;17.226;2023-07-09T19:20:31;23;20;18
44871;PMS7003;30602;51.060;17.226;2023-07-09T19:24:01;34;30;27
44871;PMS7003;30602;51.060;17.226;2023-07-09T19:27:26;29;28;18
44871;PMS7003;30602;51.060;17.226;2023-07-09T19:32:05;51;45;34
44871;PMS7003;30602;51.060;17.226;2023-07-09T19:36:20;101;100;38
44871;PMS7003;30602;51.060;17.226;2023-07-09T19:40:50;85;82;37
44871;PMS7003;30602;51.060;17.226;2023-07-09T19:44:12;150;147;59
44871;PMS7003;30602;51.060;17.226;2023-07-09T19:48:52;110;100;84
44871;PMS7003;30602;51.060;17.226;2023-07-09T19:52:48;94;90;75
44871;PMS7003;30602;51.060;17.226;2023-07-09T19:57:10;41;40;33
44871;PMS7003;30602;51.060;17.226;2023-07-09T20:00:33;42;38;32
44871;PMS7003;30602;51.060;17.226;2023-07-09T20:04:43;55;46;38
44871;PMS7003;30602;51.060;17.226;2023-07-09T20:08:20;38;33;29
44871;PMS7003;30602;51.060;17.226;2023-07-09T20:12:27;41;36;30
44871;PMS7003;30602;51.060;17.226;2023-07-09T20:16:29;34;32;25
44871;PMS7003;30602;51.060;17.226;2023-07-09T20:20:12;33;31;25
44871;PMS7003;30602;51.060;17.226;2023-07-09T20:30:07;36;34;30
44871;PMS7003;30602;51.060;17.226;2023-07-09T20:34:15;44;41;31
44871;PMS7003;30602;51.060;17.226;2023-07-09T20:38:25;43;38;31
44871;PMS7003;30602;51.060;17.226;2023-07-09T20:42:21;39;35;32
44871;PMS7003;30602;51.060;17.226;2023-07-09T20:47:37;34;32;26
44871;PMS7003;30602;51.060;17.226;2023-07-09T20:51:10;63;58;48
44871;PMS7003;30602;51.060;17.226;2023-07-09T20:55:29;65;62;49
44871;PMS7003;30602;51.060;17.226;2023-07-09T20:59:53;55;55;42
44871;PMS7003;30602;51.060;17.226;2023-07-09T21:04:07;60;57;50
44871;PMS7003;30602;51.060;17.226;2023-07-09T21:11:41;57;52;42
44871;PMS7003;30602;51.060;17.226;2023-07-09T21:15:43;71;65;54
44871;PMS7003;30602;51.060;17.226;2023-07-09T21:20:14;86;79;61
44871;PMS7003;30602;51.060;17.226;2023-07-09T21:27:49;69;61;51
44871;PMS7003;30602;51.060;17.226;2023-07-09T21:32:00;64;57;49
44871;PMS7003;30602;51.060;17.226;2023-07-09T21:36:29;62;54;46
44871;PMS7003;30602;51.060;17.226;2023-07-09T21:44:16;75;65;58
44871;PMS7003;30602;51.060;17.226;2023-07-09T21:48:33;67;60;52
44871;PMS7003;30602;51.060;17.226;2023-07-09T21:52:44;68;59;50
44871;PMS7003;30602;51.060;17.226;2023-07-09T21:56:29;74;66;56
44871;PMS7003;30602;51.060;17.226;2023-07-09T22:00:36;74;67;60
44871;PMS7003;30602;51.060;17.226;2023-07-09T22:05:08;44;42;35
44871;PMS7003;30602;51.060;17.226;2023-07-09T22:09:04;49;43;37
44871;PMS7003;30602;51.060;17.226;2023-07-09T22:13:15;51;49;39
44871;PMS7003;30602;51.060;17.226;2023-07-09T22:17:00;49;45;39
44871;PMS7003;30602;51.060;17.226;2023-07-09T22:20:47;42;40;34
44871;PMS7003;30602;51.060;17.226;2023-07-09T22:28:18;47;44;35
44871;PMS7003;30602;51.060;17.226;2023-07-09T22:32:22;42;40;36
44871;PMS7003;30602;51.060;17.226;2023-07-09T22:36:07;51;47;38
44871;PMS7003;30602;51.060;17.226;2023-07-09T22:39:55;54;50;40
44871;PMS7003;30602;51.060;17.226;2023-07-09T22:43:46;52;47;41
44871;PMS7003;30602;51.060;17.226;2023-07-09T22:47:30;70;67;46
44871;PMS7003;30602;51.060;17.226;2023-07-09T22:51:52;79;77;56
44871;PMS7003;30602;51.060;17.226;2023-07-09T22:59:48;45;43;37
44871;PMS7003;30602;51.060;17.226;2023-07-09T23:07:39;64;56;46
44871;PMS7003;30602;51.060;17.226;2023-07-09T23:11:56;51;48;42
44871;PMS7003;30602;51.060;17.226;2023-07-09T23:16:15;43;43;39
44871;PMS7003;30602;51.060;17.226;2023-07-09T23:20:12;48;47;40
44871;PMS7003;30602;51.060;17.226;2023-07-09T23:24:06;49;47;41
44871;PMS7003;30602;51.060;17.226;2023-07-09T23:28:00;52;50;42
44871;PMS7003;30602;51.060;17.226;2023-07-09T23:31:44;76;67;58
44871;PMS7003;30602;51.060;17.226;2023-07-09T23:35:51;60;54;47
44871;PMS7003;30602;51.060;17.226;2023-07-09T23:40:30;46;42;39
44871;PMS7003;30602;51.060;17.226;2023-07-09T23:51:45;60;55;47
44871;PMS7003;30602;51.060;17.226;2023-07-09T23:55:48;66;59;51
44871;PMS7003;30602;51.060;17.226;2023-07-09T23:59:13;65;57;47
